sensor_id;sensor_type;location;lat;lon;timestamp;pressure;altitude;pressure_sealevel;temperature;humidity
21504;BME280;10913;51.992;9.228;2023-04-24T00:00:50;98834.84;;;12.99;95.12
21504;BME280;10913;51.992;9.228;2023-04-24T00:03:16;98840.16;;;12.99;95.26
21504;BME280;10913;51.992;9.228;2023-04-24T00:05:42;98838.44;;;12.98;95.32
21504;BME280;10913;51.992;9.228;2023-04-24T00:08:08;98835.88;;;12.95;95.03
21504;BME280;10913;51.992;9.228;2023-04-24T00:10:33;98828.97;;;12.91;95.45
21504;BME280;10913;51.992;9.228;2023-04-24T00:12:58;98827.19;;;12.91;95.40
21504;BME280;10913;51.992;9.228;2023-04-24T00:15:24;98834.22;;;12.92;94.94
21504;BME280;10913;51.992;9.228;2023-04-24T00:17:49;98824.66;;;12.88;94.91
21504;BME280;10913;51.992;9.228;2023-04-24T00:20:14;98825.53;;;12.89;94.80
21504;BME280;10913;51.992;9.228;2023-04-24T00:22:40;98821.16;;;12.88;94.61
21504;BME280;10913;51.992;9.228;2023-04-24T00:25:05;98823.00;;;12.86;94.32
21504;BME280;10913;51.992;9.228;2023-04-24T00:27:31;98814.22;;;12.84;93.92
21504;BME280;10913;51.992;9.228;2023-04-24T00:29:56;98822.31;;;12.81;93.70
21504;BME280;10913;51.992;9.228;2023-04-24T00:32:22;98814.50;;;12.77;93.66
21504;BME280;10913;51.992;9.228;2023-04-24T00:34:47;98817.22;;;12.76;93.55
21504;BME280;10913;51.992;9.228;2023-04-24T00:37:12;98817.16;;;12.77;93.61
21504;BME280;10913;51.992;9.228;2023-04-24T00:39:38;98822.63;;;12.73;93.01
21504;BME280;10913;51.992;9.228;2023-04-24T00:42:03;98818.31;;;12.70;92.76
21504;BME280;10913;51.992;9.228;2023-04-24T00:44:32;98821.19;;;12.64;93.12
21504;BME280;10913;51.992;9.228;2023-04-24T00:46:58;98817.78;;;12.61;93.31
21504;BME280;10913;51.992;9.228;2023-04-24T00:49:25;98816.13;;;12.58;93.11
21504;BME280;10913;51.992;9.228;2023-04-24T00:51:50;98817.84;;;12.59;93.37
21504;BME280;10913;51.992;9.228;2023-04-24T00:54:16;98816.13;;;12.58;93.49
21504;BME280;10913;51.992;9.228;2023-04-24T00:56:44;98815.19;;;12.59;93.58
21504;BME280;10913;51.992;9.228;2023-04-24T00:59:10;98811.75;;;12.57;93.63
21504;BME280;10913;51.992;9.228;2023-04-24T01:01:36;98817.06;;;12.57;93.47
21504;BME280;10913;51.992;9.228;2023-04-24T01:04:01;98810.94;;;12.55;93.30
21504;BME280;10913;51.992;9.228;2023-04-24T01:06:28;98806.56;;;12.54;93.26
21504;BME280;10913;51.992;9.228;2023-04-24T01:08:54;98805.72;;;12.54;93.32
21504;BME280;10913;51.992;9.228;2023-04-24T01:11:21;98803.19;;;12.51;92.79
21504;BME280;10913;51.992;9.228;2023-04-24T01:13:47;98812.16;;;12.47;92.45
21504;BME280;10913;51.992;9.228;2023-04-24T01:16:14;98798.16;;;12.43;92.09
21504;BME280;10913;51.992;9.228;2023-04-24T01:18:42;98796.69;;;12.36;92.01
21504;BME280;10913;51.992;9.228;2023-04-24T01:21:08;98797.72;;;12.32;92.32
21504;BME280;10913;51.992;9.228;2023-04-24T01:23:34;98801.47;;;12.26;92.43
21504;BME280;10913;51.992;9.228;2023-04-24T01:26:00;98795.59;;;12.18;92.84
21504;BME280;10913;51.992;9.228;2023-04-24T01:28:25;98806.34;;;12.14;93.25
21504;BME280;10913;51.992;9.228;2023-04-24T01:30:52;98810.91;;;12.10;93.34
21504;BME280;10913;51.992;9.228;2023-04-24T01:33:17;98809.22;;;12.07;93.34
21504;BME280;10913;51.992;9.228;2023-04-24T01:35:43;98809.31;;;12.04;93.37
21504;BME280;10913;51.992;9.228;2023-04-24T01:38:08;98813.09;;;11.99;93.59
21504;BME280;10913;51.992;9.228;2023-04-24T01:40:34;98811.56;;;11.92;93.05
21504;BME280;10913;51.992;9.228;2023-04-24T01:43:00;98813.50;;;11.87;93.18
21504;BME280;10913;51.992;9.228;2023-04-24T01:45:25;98821.50;;;11.85;93.60
21504;BME280;10913;51.992;9.228;2023-04-24T01:47:51;98817.22;;;11.81;92.98
21504;BME280;10913;51.992;9.228;2023-04-24T01:50:18;98811.28;;;11.74;92.92
21504;BME280;10913;51.992;9.228;2023-04-24T01:52:43;98820.06;;;11.75;92.24
21504;BME280;10913;51.992;9.228;2023-04-24T01:55:09;98815.69;;;11.74;92.92
21504;BME280;10913;51.992;9.228;2023-04-24T01:57:35;98813.06;;;11.74;91.59
21504;BME280;10913;51.992;9.228;2023-04-24T02:00:01;98811.44;;;11.70;92.09
21504;BME280;10913;51.992;9.228;2023-04-24T02:02:29;98816.94;;;11.64;91.95
21504;BME280;10913;51.992;9.228;2023-04-24T02:04:55;98809.81;;;11.66;91.55
21504;BME280;10913;51.992;9.228;2023-04-24T02:07:21;98805.28;;;11.69;91.35
21504;BME280;10913;51.992;9.228;2023-04-24T02:09:46;98812.28;;;11.70;90.99
21504;BME280;10913;51.992;9.228;2023-04-24T02:12:12;98807.00;;;11.70;90.48
21504;BME280;10913;51.992;9.228;2023-04-24T02:14:37;98800.75;;;11.73;90.43
21504;BME280;10913;51.992;9.228;2023-04-24T02:17:02;98794.53;;;11.74;90.31
21504;BME280;10913;51.992;9.228;2023-04-24T02:19:28;98805.06;;;11.76;90.38
21504;BME280;10913;51.992;9.228;2023-04-24T02:21:53;98798.75;;;11.80;90.54
21504;BME280;10913;51.992;9.228;2023-04-24T02:24:18;98800.44;;;11.82;90.69
21504;BME280;10913;51.992;9.228;2023-04-24T02:26:44;98797.69;;;11.85;90.44
21504;BME280;10913;51.992;9.228;2023-04-24T02:29:09;98800.31;;;11.85;89.83
21504;BME280;10913;51.992;9.228;2023-04-24T02:31:35;98803.03;;;11.84;88.51
21504;BME280;10913;51.992;9.228;2023-04-24T02:34:00;98803.13;;;11.81;88.43
21504;BME280;10913;51.992;9.228;2023-04-24T02:36:26;98791.81;;;11.77;88.94
21504;BME280;10913;51.992;9.228;2023-04-24T02:38:51;98791.81;;;11.77;89.08
21504;BME280;10913;51.992;9.228;2023-04-24T02:41:17;98798.84;;;11.78;89.20
21504;BME280;10913;51.992;9.228;2023-04-24T02:43:42;98796.09;;;11.80;89.26
21504;BME280;10913;51.992;9.228;2023-04-24T02:46:07;98805.00;;;11.79;89.71
21504;BME280;10913;51.992;9.228;2023-04-24T02:48:33;98798.91;;;11.75;90.02
21504;BME280;10913;51.992;9.228;2023-04-24T02:50:58;98792.84;;;11.71;90.69
21504;BME280;10913;51.992;9.228;2023-04-24T02:53:23;98792.06;;;11.69;91.38
21504;BME280;10913;51.992;9.228;2023-04-24T02:55:49;98779.75;;;11.68;91.68
21504;BME280;10913;51.992;9.228;2023-04-24T02:58:14;98792.97;;;11.68;91.77
21504;BME280;10913;51.992;9.228;2023-04-24T03:00:40;98780.75;;;11.64;92.12
21504;BME280;10913;51.992;9.228;2023-04-24T03:03:06;98785.25;;;11.62;92.34
21504;BME280;10913;51.992;9.228;2023-04-24T03:05:32;98776.44;;;11.62;92.62
21504;BME280;10913;51.992;9.228;2023-04-24T03:07:57;98781.72;;;11.62;92.61
21504;BME280;10913;51.992;9.228;2023-04-24T03:10:22;98779.13;;;11.60;92.54
21504;BME280;10913;51.992;9.228;2023-04-24T03:12:48;98787.16;;;11.59;91.89
21504;BME280;10913;51.992;9.228;2023-04-24T03:15:14;98780.00;;;11.61;91.52
21504;BME280;10913;51.992;9.228;2023-04-24T03:17:39;98774.75;;;11.59;91.49
21504;BME280;10913;51.992;9.228;2023-04-24T03:20:05;98778.28;;;11.60;91.70
21504;BME280;10913;51.992;9.228;2023-04-24T03:22:31;98784.63;;;11.56;91.83
21504;BME280;10913;51.992;9.228;2023-04-24T03:24:57;98789.94;;;11.54;91.89
21504;BME280;10913;51.992;9.228;2023-04-24T03:27:23;98796.09;;;11.55;92.00
21504;BME280;10913;51.992;9.228;2023-04-24T03:29:48;98788.22;;;11.53;92.17
21504;BME280;10913;51.992;9.228;2023-04-24T03:32:19;98782.00;;;11.54;92.73
21504;BME280;10913;51.992;9.228;2023-04-24T03:34:44;98789.94;;;11.54;92.73
21504;BME280;10913;51.992;9.228;2023-04-24T03:37:09;98781.97;;;11.56;92.98
21504;BME280;10913;51.992;9.228;2023-04-24T03:39:35;98779.38;;;11.54;92.85
21504;BME280;10913;51.992;9.228;2023-04-24T03:42:00;98779.44;;;11.53;93.15
21504;BME280;10913;51.992;9.228;2023-04-24T03:44:26;98782.94;;;11.53;93.48
21504;BME280;10913;51.992;9.228;2023-04-24T03:46:51;98780.28;;;11.53;93.71
21504;BME280;10913;51.992;9.228;2023-04-24T03:49:17;98776.88;;;11.50;93.97
21504;BME280;10913;51.992;9.228;2023-04-24T03:51:42;98782.22;;;11.48;94.26
21504;BME280;10913;51.992;9.228;2023-04-24T03:54:08;98778.72;;;11.48;94.50
21504;BME280;10913;51.992;9.228;2023-04-24T03:56:33;98770.88;;;11.45;94.72
21504;BME280;10913;51.992;9.228;2023-04-24T03:58:58;98778.00;;;11.43;94.99
21504;BME280;10913;51.992;9.228;2023-04-24T04:01:24;98772.75;;;11.41;95.69
21504;BME280;10913;51.992;9.228;2023-04-24T04:03:49;98775.34;;;11.43;95.63
21504;BME280;10913;51.992;9.228;2023-04-24T04:06:14;98777.91;;;11.46;95.73
21504;BME280;10913;51.992;9.228;2023-04-24T04:08:40;98773.38;;;11.49;95.75
21504;BME280;10913;51.992;9.228;2023-04-24T04:11:05;98778.59;;;11.51;96.01
21504;BME280;10913;51.992;9.228;2023-04-24T04:13:31;98779.63;;;11.47;96.95
21504;BME280;10913;51.992;9.228;2023-04-24T04:15:56;98776.97;;;11.47;97.21
21504;BME280;10913;51.992;9.228;2023-04-24T04:18:21;98779.69;;;11.45;98.35
21504;BME280;10913;51.992;9.228;2023-04-24T04:20:47;98780.63;;;11.43;99.15
21504;BME280;10913;51.992;9.228;2023-04-24T04:23:12;98772.75;;;11.41;99.26
21504;BME280;10913;51.992;9.228;2023-04-24T04:25:38;98780.81;;;11.38;99.62
21504;BME280;10913;51.992;9.228;2023-04-24T04:28:03;98775.59;;;11.36;99.34
21504;BME280;10913;51.992;9.228;2023-04-24T04:30:28;98781.59;;;11.40;99.58
21504;BME280;10913;51.992;9.228;2023-04-24T04:32:57;98777.19;;;11.40;99.74
21504;BME280;10913;51.992;9.228;2023-04-24T04:35:23;98778.06;;;11.41;99.90
21504;BME280;10913;51.992;9.228;2023-04-24T04:37:50;98778.81;;;11.45;99.71
21504;BME280;10913;51.992;9.228;2023-04-24T04:40:16;98776.13;;;11.46;99.72
21504;BME280;10913;51.992;9.228;2023-04-24T04:42:42;98776.88;;;11.50;99.63
21504;BME280;10913;51.992;9.228;2023-04-24T04:45:11;98773.22;;;11.54;99.14
21504;BME280;10913;51.992;9.228;2023-04-24T04:47:37;98778.28;;;11.60;98.18
21504;BME280;10913;51.992;9.228;2023-04-24T04:50:03;98781.53;;;11.68;97.73
21504;BME280;10913;51.992;9.228;2023-04-24T04:52:29;98785.03;;;11.68;98.76
21504;BME280;10913;51.992;9.228;2023-04-24T04:54:55;98788.50;;;11.70;98.96
21504;BME280;10913;51.992;9.228;2023-04-24T04:57:20;98784.00;;;11.72;98.33
21504;BME280;10913;51.992;9.228;2023-04-24T04:59:46;98790.09;;;11.76;98.13
21504;BME280;10913;51.992;9.228;2023-04-24T05:02:11;98801.41;;;11.80;98.42
21504;BME280;10913;51.992;9.228;2023-04-24T05:04:37;98801.19;;;11.86;96.71
21504;BME280;10913;51.992;9.228;2023-04-24T05:07:02;98807.28;;;11.88;96.87
21504;BME280;10913;51.992;9.228;2023-04-24T05:09:28;98800.97;;;11.92;96.94
21504;BME280;10913;51.992;9.228;2023-04-24T05:11:54;98811.56;;;11.92;97.84
21504;BME280;10913;51.992;9.228;2023-04-24T05:14:20;98804.59;;;11.89;98.87
21504;BME280;10913;51.992;9.228;2023-04-24T05:16:46;98817.81;;;11.89;99.17
21504;BME280;10913;51.992;9.228;2023-04-24T05:19:11;98817.06;;;11.86;100.00
21504;BME280;10913;51.992;9.228;2023-04-24T05:21:39;98798.59;;;11.84;100.00
21504;BME280;10913;51.992;9.228;2023-04-24T05:24:05;98801.50;;;11.78;100.00
21504;BME280;10913;51.992;9.228;2023-04-24T05:26:31;98805.06;;;11.76;100.00
21504;BME280;10913;51.992;9.228;2023-04-24T05:28:56;98813.91;;;11.74;100.00
21504;BME280;10913;51.992;9.228;2023-04-24T05:31:21;98809.81;;;11.66;98.72
21504;BME280;10913;51.992;9.228;2023-04-24T05:33:47;98824.00;;;11.63;97.36
21504;BME280;10913;51.992;9.228;2023-04-24T05:36:12;98826.53;;;11.66;97.30
21504;BME280;10913;51.992;9.228;2023-04-24T05:38:38;98830.88;;;11.69;97.30
21504;BME280;10913;51.992;9.228;2023-04-24T05:41:03;98833.56;;;11.67;98.63
21504;BME280;10913;51.992;9.228;2023-04-24T05:43:29;98832.91;;;11.61;98.89
21504;BME280;10913;51.992;9.228;2023-04-24T05:45:54;98834.75;;;11.59;98.95
21504;BME280;10913;51.992;9.228;2023-04-24T05:48:20;98832.03;;;11.60;98.95
21504;BME280;10913;51.992;9.228;2023-04-24T05:50:47;98828.41;;;11.63;98.96
21504;BME280;10913;51.992;9.228;2023-04-24T05:53:13;98835.38;;;11.65;98.13
21504;BME280;10913;51.992;9.228;2023-04-24T05:55:38;98839.00;;;11.63;96.39
21504;BME280;10913;51.992;9.228;2023-04-24T05:58:04;98834.53;;;11.65;96.71
21504;BME280;10913;51.992;9.228;2023-04-24T06:00:30;98841.53;;;11.66;94.71
21504;BME280;10913;51.992;9.228;2023-04-24T06:02:55;98845.34;;;11.59;93.85
21504;BME280;10913;51.992;9.228;2023-04-24T06:05:21;98840.97;;;11.58;94.50
21504;BME280;10913;51.992;9.228;2023-04-24T06:07:47;98838.19;;;11.61;94.16
21504;BME280;10913;51.992;9.228;2023-04-24T06:10:13;98848.66;;;11.64;93.45
21504;BME280;10913;51.992;9.228;2023-04-24T06:12:39;98845.22;;;11.62;93.45
21504;BME280;10913;51.992;9.228;2023-04-24T06:15:05;98853.84;;;11.67;93.52
21504;BME280;10913;51.992;9.228;2023-04-24T06:17:30;98858.19;;;11.69;93.80
21504;BME280;10913;51.992;9.228;2023-04-24T06:19:57;98857.53;;;11.63;92.63
21504;BME280;10913;51.992;9.228;2023-04-24T06:22:22;98848.94;;;11.56;92.52
21504;BME280;10913;51.992;9.228;2023-04-24T06:24:48;98856.75;;;11.59;91.39
21504;BME280;10913;51.992;9.228;2023-04-24T06:27:13;98857.41;;;11.66;91.19
21504;BME280;10913;51.992;9.228;2023-04-24T06:29:39;98862.59;;;11.69;90.60
21504;BME280;10913;51.992;9.228;2023-04-24T06:32:04;98857.22;;;11.72;90.58
21504;BME280;10913;51.992;9.228;2023-04-24T06:34:30;98858.66;;;11.82;89.66
21504;BME280;10913;51.992;9.228;2023-04-24T06:36:57;98857.06;;;12.01;89.47
21504;BME280;10913;51.992;9.228;2023-04-24T06:39:23;98854.56;;;12.22;89.42
21504;BME280;10913;51.992;9.228;2023-04-24T06:41:48;98850.31;;;12.41;88.60
21504;BME280;10913;51.992;9.228;2023-04-24T06:44:13;98852.63;;;12.50;87.49
21504;BME280;10913;51.992;9.228;2023-04-24T06:46:40;98862.75;;;12.62;86.17
21504;BME280;10913;51.992;9.228;2023-04-24T06:49:06;98866.81;;;12.49;84.13
21504;BME280;10913;51.992;9.228;2023-04-24T06:51:31;98865.94;;;12.49;84.80
21504;BME280;10913;51.992;9.228;2023-04-24T06:53:58;98865.84;;;12.52;83.92
21504;BME280;10913;51.992;9.228;2023-04-24T06:56:24;98859.59;;;12.53;82.04
21504;BME280;10913;51.992;9.228;2023-04-24T06:58:50;98861.19;;;12.58;82.00
21504;BME280;10913;51.992;9.228;2023-04-24T07:01:16;98855.19;;;12.53;81.26
21504;BME280;10913;51.992;9.228;2023-04-24T07:03:41;98865.66;;;12.56;81.39
21504;BME280;10913;51.992;9.228;2023-04-24T07:06:07;98865.31;;;12.65;80.67
21504;BME280;10913;51.992;9.228;2023-04-24T07:08:33;98863.50;;;12.66;81.80
21504;BME280;10913;51.992;9.228;2023-04-24T07:10:58;98865.34;;;12.64;80.79
21504;BME280;10913;51.992;9.228;2023-04-24T07:13:24;98865.41;;;12.62;80.13
21504;BME280;10913;51.992;9.228;2023-04-24T07:15:49;98865.31;;;12.65;79.71
21504;BME280;10913;51.992;9.228;2023-04-24T07:18:16;98862.19;;;12.77;79.52
21504;BME280;10913;51.992;9.228;2023-04-24T07:20:42;98883.13;;;12.84;79.13
21504;BME280;10913;51.992;9.228;2023-04-24T07:23:07;98866.22;;;12.64;78.02
21504;BME280;10913;51.992;9.228;2023-04-24T07:25:33;98875.09;;;12.63;79.40
21504;BME280;10913;51.992;9.228;2023-04-24T07:27:58;98876.25;;;12.56;79.29
21504;BME280;10913;51.992;9.228;2023-04-24T07:30:24;98886.91;;;12.55;80.53
21504;BME280;10913;51.992;9.228;2023-04-24T07:32:49;98885.06;;;12.57;80.35
21504;BME280;10913;51.992;9.228;2023-04-24T07:35:15;98888.00;;;12.49;79.46
21504;BME280;10913;51.992;9.228;2023-04-24T07:37:40;98883.16;;;12.37;79.68
21504;BME280;10913;51.992;9.228;2023-04-24T07:40:11;98891.09;;;12.37;79.79
21504;BME280;10913;51.992;9.228;2023-04-24T07:42:37;98891.66;;;12.45;80.24
21504;BME280;10913;51.992;9.228;2023-04-24T07:45:04;98891.63;;;12.47;79.79
21504;BME280;10913;51.992;9.228;2023-04-24T07:47:29;98889.94;;;12.67;80.11
21504;BME280;10913;51.992;9.228;2023-04-24T07:49:55;98891.97;;;13.06;77.75
21504;BME280;10913;51.992;9.228;2023-04-24T07:52:21;98870.31;;;14.80;72.88
21504;BME280;10913;51.992;9.228;2023-04-24T07:54:46;98881.69;;;16.27;68.75
21504;BME280;10913;51.992;9.228;2023-04-24T07:57:11;98890.94;;;16.37;66.50
21504;BME280;10913;51.992;9.228;2023-04-24T07:59:37;98888.06;;;15.72;68.25
21504;BME280;10913;51.992;9.228;2023-04-24T08:02:02;98891.94;;;15.29;68.67
21504;BME280;10913;51.992;9.228;2023-04-24T08:04:27;98889.00;;;14.79;70.67
21504;BME280;10913;51.992;9.228;2023-04-24T08:06:53;98896.25;;;14.36;71.93
21504;BME280;10913;51.992;9.228;2023-04-24T08:09:18;98904.06;;;13.99;72.83
21504;BME280;10913;51.992;9.228;2023-04-24T08:11:44;98910.44;;;13.74;73.81
21504;BME280;10913;51.992;9.228;2023-04-24T08:14:09;98900.53;;;13.58;74.55
21504;BME280;10913;51.992;9.228;2023-04-24T08:16:37;98900.28;;;13.42;75.60
21504;BME280;10913;51.992;9.228;2023-04-24T08:19:02;98913.09;;;13.09;75.22
21504;BME280;10913;51.992;9.228;2023-04-24T08:21:28;98912.22;;;12.85;75.85
21504;BME280;10913;51.992;9.228;2023-04-24T08:23:53;98902.72;;;12.80;76.94
21504;BME280;10913;51.992;9.228;2023-04-24T08:26:19;98917.41;;;12.65;76.16
21504;BME280;10913;51.992;9.228;2023-04-24T08:28:44;98922.09;;;12.58;76.76
21504;BME280;10913;51.992;9.228;2023-04-24T08:31:12;98917.72;;;12.57;77.21
21504;BME280;10913;51.992;9.228;2023-04-24T08:33:37;98905.50;;;12.53;77.87
21504;BME280;10913;51.992;9.228;2023-04-24T08:36:04;98919.88;;;12.46;77.64
21504;BME280;10913;51.992;9.228;2023-04-24T08:38:30;98918.25;;;12.42;77.62
21504;BME280;10913;51.992;9.228;2023-04-24T08:40:57;98908.53;;;12.42;77.83
21504;BME280;10913;51.992;9.228;2023-04-24T08:43:23;98916.81;;;12.58;77.62
21504;BME280;10913;51.992;9.228;2023-04-24T08:45:50;98910.22;;;12.68;77.33
21504;BME280;10913;51.992;9.228;2023-04-24T08:48:16;98914.59;;;12.93;77.32
21504;BME280;10913;51.992;9.228;2023-04-24T08:50:42;98910.00;;;12.98;76.26
21504;BME280;10913;51.992;9.228;2023-04-24T08:53:10;98909.31;;;12.93;76.39
21504;BME280;10913;51.992;9.228;2023-04-24T08:55:37;98915.69;;;12.87;76.36
21504;BME280;10913;51.992;9.228;2023-04-24T08:58:03;98913.22;;;12.83;77.31
21504;BME280;10913;51.992;9.228;2023-04-24T09:00:29;98920.25;;;12.84;76.48
21504;BME280;10913;51.992;9.228;2023-04-24T09:02:55;98910.00;;;12.74;76.38
21504;BME280;10913;51.992;9.228;2023-04-24T09:05:22;98916.28;;;12.72;76.78
21504;BME280;10913;51.992;9.228;2023-04-24T09:07:56;98914.66;;;12.68;76.47
21504;BME280;10913;51.992;9.228;2023-04-24T09:10:23;98912.13;;;12.65;76.94
21504;BME280;10913;51.992;9.228;2023-04-24T09:12:50;98922.56;;;12.69;77.49
21504;BME280;10913;51.992;9.228;2023-04-24T09:15:16;98942.47;;;12.56;77.26
21504;BME280;10913;51.992;9.228;2023-04-24T09:17:43;98921.41;;;12.53;77.65
21504;BME280;10913;51.992;9.228;2023-04-24T09:20:08;98915.41;;;12.71;77.90
21504;BME280;10913;51.992;9.228;2023-04-24T09:22:34;98916.56;;;12.88;78.08
21504;BME280;10913;51.992;9.228;2023-04-24T09:25:07;98918.44;;;13.07;77.73
21504;BME280;10913;51.992;9.228;2023-04-24T09:27:34;98909.63;;;13.30;76.41
21504;BME280;10913;51.992;9.228;2023-04-24T09:30:00;98915.16;;;13.24;75.57
21504;BME280;10913;51.992;9.228;2023-04-24T09:32:26;98924.03;;;13.23;75.94
21504;BME280;10913;51.992;9.228;2023-04-24T09:35:14;98930.28;;;12.99;75.50
21504;BME280;10913;51.992;9.228;2023-04-24T09:37:45;98930.09;;;12.80;76.54
21504;BME280;10913;51.992;9.228;2023-04-24T09:40:21;98924.72;;;12.82;76.22
21504;BME280;10913;51.992;9.228;2023-04-24T09:42:56;98926.22;;;12.65;75.69
21504;BME280;10913;51.992;9.228;2023-04-24T09:45:28;98926.66;;;12.78;77.16
21504;BME280;10913;51.992;9.228;2023-04-24T09:47:53;98929.88;;;12.86;76.21
21504;BME280;10913;51.992;9.228;2023-04-24T09:50:21;98924.56;;;12.86;75.42
21504;BME280;10913;51.992;9.228;2023-04-24T09:52:56;98928.81;;;13.14;76.11
21504;BME280;10913;51.992;9.228;2023-04-24T09:55:22;98925.53;;;13.30;74.68
21504;BME280;10913;51.992;9.228;2023-04-24T09:57:53;98925.75;;;13.24;73.82
21504;BME280;10913;51.992;9.228;2023-04-24T10:00:26;98929.28;;;13.25;74.63
21504;BME280;10913;51.992;9.228;2023-04-24T10:03:00;98929.34;;;13.23;74.99
21504;BME280;10913;51.992;9.228;2023-04-24T10:05:36;98940.19;;;13.17;74.80
21504;BME280;10913;51.992;9.228;2023-04-24T10:08:11;98929.97;;;13.06;75.50
21504;BME280;10913;51.992;9.228;2023-04-24T10:10:41;98941.81;;;12.98;76.93
21504;BME280;10913;51.992;9.228;2023-04-24T10:13:09;98945.59;;;12.91;78.60
21504;BME280;10913;51.992;9.228;2023-04-24T10:15:35;98945.13;;;12.80;79.41
21504;BME280;10913;51.992;9.228;2023-04-24T10:18:02;98947.00;;;12.77;81.37
21504;BME280;10913;51.992;9.228;2023-04-24T10:20:30;98944.16;;;12.82;79.67
21504;BME280;10913;51.992;9.228;2023-04-24T10:22:57;98944.16;;;12.82;79.79
21504;BME280;10913;51.992;9.228;2023-04-24T10:25:25;98943.06;;;12.88;79.86
21504;BME280;10913;51.992;9.228;2023-04-24T10:27:52;98946.47;;;12.91;78.05
21504;BME280;10913;51.992;9.228;2023-04-24T10:30:19;98939.38;;;12.92;78.45
21504;BME280;10913;51.992;9.228;2023-04-24T10:32:45;98945.00;;;12.83;78.09
21504;BME280;10913;51.992;9.228;2023-04-24T10:35:14;98939.31;;;12.70;76.63
21504;BME280;10913;51.992;9.228;2023-04-24T10:37:45;98948.81;;;12.52;77.60
21504;BME280;10913;51.992;9.228;2023-04-24T10:40:11;98961.19;;;12.27;80.39
21504;BME280;10913;51.992;9.228;2023-04-24T10:42:40;98956.22;;;12.18;82.43
21504;BME280;10913;51.992;9.228;2023-04-24T10:45:16;98961.63;;;12.15;82.12
21504;BME280;10913;51.992;9.228;2023-04-24T10:47:59;98962.44;;;12.17;81.89
21504;BME280;10913;51.992;9.228;2023-04-24T10:50:41;98952.94;;;12.36;81.68
21504;BME280;10913;51.992;9.228;2023-04-24T10:53:13;98964.97;;;12.45;81.34
21504;BME280;10913;51.992;9.228;2023-04-24T10:58:16;98973.03;;;12.90;80.92
21504;BME280;10913;51.992;9.228;2023-04-24T11:00:43;98954.59;;;13.10;79.03
21504;BME280;10913;51.992;9.228;2023-04-24T11:03:27;98967.84;;;13.33;77.35
21504;BME280;10913;51.992;9.228;2023-04-24T11:06:05;98980.69;;;13.21;78.18
21504;BME280;10913;51.992;9.228;2023-04-24T11:08:37;98969.63;;;13.09;80.19
21504;BME280;10913;51.992;9.228;2023-04-24T11:11:06;98983.22;;;13.00;80.93
21504;BME280;10913;51.992;9.228;2023-04-24T11:21:57;99014.16;;;12.27;81.78
21504;BME280;10913;51.992;9.228;2023-04-24T11:29:39;98989.59;;;11.97;82.97
21504;BME280;10913;51.992;9.228;2023-04-24T11:34:57;99011.63;;;11.69;83.52
21504;BME280;10913;51.992;9.228;2023-04-24T11:37:26;99014.22;;;11.71;83.27
21504;BME280;10913;51.992;9.228;2023-04-24T11:39:53;99029.81;;;11.80;82.54
21504;BME280;10913;51.992;9.228;2023-04-24T11:42:20;99030.59;;;11.84;82.09
21504;BME280;10913;51.992;9.228;2023-04-24T11:44:46;99034.31;;;11.78;81.14
21504;BME280;10913;51.992;9.228;2023-04-24T11:47:12;99041.84;;;11.90;82.25
21504;BME280;10913;51.992;9.228;2023-04-24T11:49:38;99041.44;;;12.02;82.20
21504;BME280;10913;51.992;9.228;2023-04-24T11:52:04;99045.88;;;12.02;81.56
21504;BME280;10913;51.992;9.228;2023-04-24T11:54:29;99057.53;;;11.96;81.58
21504;BME280;10913;51.992;9.228;2023-04-24T11:56:56;99056.00;;;11.89;83.28
21504;BME280;10913;51.992;9.228;2023-04-24T11:59:22;99060.00;;;11.73;84.66
21504;BME280;10913;51.992;9.228;2023-04-24T12:01:48;99064.13;;;11.54;84.81
21504;BME280;10913;51.992;9.228;2023-04-24T12:04:15;99068.25;;;11.34;85.98
21504;BME280;10913;51.992;9.228;2023-04-24T12:07:03;99079.66;;;11.36;86.38
21504;BME280;10913;51.992;9.228;2023-04-24T12:09:40;99078.53;;;11.44;86.64
21504;BME280;10913;51.992;9.228;2023-04-24T12:12:07;99076.72;;;11.46;86.47
21504;BME280;10913;51.992;9.228;2023-04-24T12:14:32;99081.00;;;11.50;86.41
21504;BME280;10913;51.992;9.228;2023-04-24T12:16:57;99080.25;;;11.45;86.25
21504;BME280;10913;51.992;9.228;2023-04-24T12:19:23;99071.72;;;11.36;87.03
21504;BME280;10913;51.992;9.228;2023-04-24T12:22:05;99078.25;;;11.23;87.01
21504;BME280;10913;51.992;9.228;2023-04-24T12:24:31;99086.00;;;11.29;87.27
21504;BME280;10913;51.992;9.228;2023-04-24T12:26:57;99091.88;;;11.39;87.34
21504;BME280;10913;51.992;9.228;2023-04-24T12:29:23;99086.28;;;11.50;87.87
21504;BME280;10913;51.992;9.228;2023-04-24T12:31:50;99103.75;;;11.55;89.75
21504;BME280;10913;51.992;9.228;2023-04-24T12:34:23;99107.25;;;11.26;90.99
21504;BME280;10913;51.992;9.228;2023-04-24T12:36:50;99119.59;;;11.26;91.83
21504;BME280;10913;51.992;9.228;2023-04-24T12:39:19;99125.13;;;11.18;92.75
21504;BME280;10913;51.992;9.228;2023-04-24T12:41:55;99121.28;;;11.28;92.09
21504;BME280;10913;51.992;9.228;2023-04-24T12:46:56;99130.50;;;11.45;90.87
21504;BME280;10913;51.992;9.228;2023-04-24T12:49:22;99127.69;;;11.51;90.54
21504;BME280;10913;51.992;9.228;2023-04-24T12:51:47;99134.44;;;11.61;91.10
21504;BME280;10913;51.992;9.228;2023-04-24T12:54:13;99142.78;;;11.78;89.57
21504;BME280;10913;51.992;9.228;2023-04-24T12:56:38;99146.06;;;11.86;90.20
21504;BME280;10913;51.992;9.228;2023-04-24T12:59:04;99145.97;;;11.89;90.32
21504;BME280;10913;51.992;9.228;2023-04-24T13:01:30;99144.66;;;12.02;89.57
21504;BME280;10913;51.992;9.228;2023-04-24T13:03:55;99153.97;;;12.16;89.65
21504;BME280;10913;51.992;9.228;2023-04-24T13:06:21;99155.41;;;12.26;89.40
21504;BME280;10913;51.992;9.228;2023-04-24T13:08:46;99151.50;;;12.37;88.85
21504;BME280;10913;51.992;9.228;2023-04-24T13:11:13;99152.19;;;12.42;89.33
21504;BME280;10913;51.992;9.228;2023-04-24T13:13:38;99161.75;;;12.48;88.57
21504;BME280;10913;51.992;9.228;2023-04-24T13:16:03;99163.75;;;12.40;88.75
21504;BME280;10913;51.992;9.228;2023-04-24T13:18:29;99171.47;;;12.20;88.46